createdAt,value
2018-08-17T00:01:55.474Z,20.02
2018-08-17T00:04:26.296Z,19.96
2018-08-17T00:06:57.096Z,19.93
2018-08-17T00:09:27.823Z,19.97
2018-08-17T00:11:58.617Z,19.92
2018-08-17T00:14:29.467Z,19.89
2018-08-17T00:17:00.204Z,19.84
2018-08-17T00:19:30.953Z,19.84
2018-08-17T00:22:02.053Z,19.80
2018-08-17T00:24:32.834Z,19.84
2018-08-17T00:27:03.533Z,19.85
2018-08-17T00:29:34.238Z,19.89
2018-08-17T00:32:04.906Z,19.87
2018-08-17T00:34:35.664Z,19.85
2018-08-17T00:37:06.386Z,19.89
2018-08-17T00:39:37.101Z,19.88
2018-08-17T00:42:07.806Z,19.85
2018-08-17T00:44:38.589Z,19.83
2018-08-17T00:47:09.335Z,19.89
2018-08-17T00:49:40.038Z,19.86
2018-08-17T00:52:11.265Z,19.81
2018-08-17T00:54:41.953Z,19.81
2018-08-17T00:57:12.732Z,19.79
2018-08-17T00:59:43.435Z,19.79
2018-08-17T01:02:14.181Z,19.82
2018-08-17T01:04:44.889Z,19.76
2018-08-17T01:07:15.591Z,19.77
2018-08-17T01:09:46.298Z,19.76
2018-08-17T01:12:17.043Z,19.81
2018-08-17T01:14:47.804Z,19.88
2018-08-17T01:17:18.593Z,19.77
2018-08-17T01:19:49.395Z,19.75
2018-08-17T01:22:20.137Z,19.75
2018-08-17T01:24:50.966Z,19.79
2018-08-17T01:27:21.704Z,19.72
2018-08-17T01:29:52.423Z,19.73
2018-08-17T01:32:23.203Z,19.83
2018-08-17T01:34:53.985Z,19.82
2018-08-17T01:37:24.771Z,19.83
2018-08-17T01:39:55.572Z,19.85
2018-08-17T01:42:26.282Z,19.90
2018-08-17T01:44:56.976Z,19.90
2018-08-17T01:47:27.774Z,19.91
2018-08-17T01:49:58.464Z,19.98
2018-08-17T01:52:29.251Z,20.02
2018-08-17T01:54:59.978Z,20.05
2018-08-17T01:57:30.744Z,20.03
2018-08-17T02:00:01.426Z,20.01
2018-08-17T02:02:32.288Z,20.00
2018-08-17T02:05:03.005Z,20.00
2018-08-17T02:07:33.746Z,20.07
2018-08-17T02:10:05.634Z,20.09
2018-08-17T02:12:36.460Z,20.16
2018-08-17T02:15:07.284Z,20.13
2018-08-17T02:17:38.020Z,20.06
2018-08-17T02:20:08.774Z,20.04
2018-08-17T02:22:39.525Z,19.99
2018-08-17T02:25:10.385Z,19.93
2018-08-17T02:27:41.121Z,19.88
2018-08-17T02:30:11.876Z,19.80
2018-08-17T02:32:42.628Z,19.73
2018-08-17T02:35:13.336Z,19.76
2018-08-17T02:37:44.058Z,19.82
2018-08-17T02:40:15.571Z,19.67
2018-08-17T02:42:46.322Z,19.56
2018-08-17T02:45:17.140Z,19.41
2018-08-17T02:47:47.937Z,19.37
2018-08-17T02:50:18.753Z,19.33
2018-08-17T02:52:49.471Z,19.29
2018-08-17T02:55:20.255Z,19.26
2018-08-17T02:57:50.973Z,19.23
2018-08-17T03:00:21.765Z,19.24
2018-08-17T03:02:52.503Z,19.23
2018-08-17T03:05:23.255Z,19.29
2018-08-17T03:07:54.086Z,19.21
2018-08-17T03:10:24.816Z,19.12
2018-08-17T03:12:55.649Z,19.14
2018-08-17T03:15:26.408Z,19.11
2018-08-17T03:17:57.200Z,19.11
2018-08-17T03:20:27.912Z,19.07
2018-08-17T03:22:58.724Z,19.09
2018-08-17T03:25:29.440Z,19.10
2018-08-17T03:28:00.172Z,19.10
2018-08-17T03:30:30.943Z,19.10
2018-08-17T03:33:01.673Z,19.04
2018-08-17T03:35:32.602Z,19.05
2018-08-17T03:38:03.413Z,19.07
2018-08-17T03:40:34.152Z,19.12
2018-08-17T03:43:04.904Z,19.10
2018-08-17T03:45:35.612Z,19.10
2018-08-17T03:48:06.611Z,19.15
2018-08-17T03:50:37.459Z,19.14
2018-08-17T03:53:08.338Z,19.14
2018-08-17T03:55:39.231Z,19.16
2018-08-17T03:58:10.045Z,19.19
2018-08-17T04:00:40.884Z,19.25
2018-08-17T04:03:11.633Z,19.24
2018-08-17T04:05:42.370Z,19.21
2018-08-17T04:08:13.122Z,19.10
2018-08-17T04:10:43.902Z,19.05
2018-08-17T04:13:14.619Z,19.02
2018-08-17T04:15:45.346Z,19.02
2018-08-17T04:18:16.035Z,18.99
2018-08-17T04:20:46.781Z,18.94
2018-08-17T04:23:17.527Z,18.96
2018-08-17T04:25:48.259Z,18.98
2018-08-17T04:28:18.999Z,18.91
2018-08-17T04:30:49.660Z,18.90
2018-08-17T04:33:20.534Z,18.90
2018-08-17T04:35:51.401Z,19.00
2018-08-17T04:38:22.244Z,19.05
2018-08-17T04:40:53.294Z,19.11
2018-08-17T04:43:24.140Z,19.22
2018-08-17T04:45:54.943Z,19.19
2018-08-17T04:48:25.718Z,19.22
2018-08-17T04:50:56.526Z,19.20
2018-08-17T04:53:27.299Z,19.35
2018-08-17T04:55:58.071Z,19.31
2018-08-17T04:58:29.171Z,19.33
2018-08-17T05:00:59.961Z,19.30
2018-08-17T05:03:30.821Z,19.28
2018-08-17T05:06:01.573Z,19.33
2018-08-17T05:08:32.320Z,19.34
2018-08-17T05:11:03.036Z,19.35
2018-08-17T05:13:33.734Z,19.35
2018-08-17T05:16:04.607Z,19.37
2018-08-17T05:18:35.357Z,19.36
2018-08-17T05:21:06.149Z,19.41
2018-08-17T05:23:36.865Z,19.35
2018-08-17T05:26:07.666Z,19.37
2018-08-17T05:28:38.379Z,19.36
2018-08-17T05:31:09.247Z,19.37
2018-08-17T05:33:40.053Z,19.39
2018-08-17T05:36:10.838Z,19.40
2018-08-17T05:38:41.628Z,19.40
2018-08-17T05:41:12.319Z,19.40
2018-08-17T05:43:43.032Z,19.48
2018-08-17T05:46:13.757Z,19.36
2018-08-17T05:48:44.444Z,19.30
2018-08-17T05:51:15.213Z,19.27
2018-08-17T05:53:45.940Z,19.24
2018-08-17T05:56:16.640Z,19.27
2018-08-17T05:58:47.837Z,19.24
2018-08-17T06:01:19.036Z,19.10
2018-08-17T06:03:49.819Z,18.90
2018-08-17T06:06:20.523Z,18.87
2018-08-17T06:08:51.242Z,18.90
2018-08-17T06:11:22.124Z,18.96
2018-08-17T06:13:52.683Z,18.99
2018-08-17T06:16:23.344Z,19.01
2018-08-17T06:18:54.163Z,18.99
2018-08-17T06:21:24.815Z,19.03
2018-08-17T06:23:55.698Z,19.00
2018-08-17T06:26:26.495Z,19.00
2018-08-17T06:28:57.235Z,18.90
2018-08-17T06:31:28.003Z,18.88
2018-08-17T06:33:58.701Z,18.86
2018-08-17T06:36:29.431Z,18.65
2018-08-17T06:39:00.164Z,18.31
2018-08-17T06:41:30.884Z,18.20
2018-08-17T06:44:01.594Z,18.22
2018-08-17T06:46:32.432Z,18.19
2018-08-17T06:49:03.135Z,18.24
2018-08-17T06:51:33.868Z,18.12
2018-08-17T06:54:04.592Z,17.96
2018-08-17T06:56:35.276Z,17.90
2018-08-17T06:59:06.388Z,17.82
2018-08-17T07:01:37.068Z,17.71
2018-08-17T07:04:08.130Z,17.62
2018-08-17T07:06:38.852Z,17.60
2018-08-17T07:09:10.898Z,17.52
2018-08-17T07:11:42.459Z,17.43
2018-08-17T07:14:13.176Z,17.33
2018-08-17T07:16:43.904Z,17.20
2018-08-17T07:19:14.623Z,17.06
2018-08-17T07:21:45.262Z,16.98
2018-08-17T07:24:16.005Z,17.00
2018-08-17T07:26:46.715Z,16.93
2018-08-17T07:29:17.380Z,16.96
2018-08-17T07:31:48.093Z,16.95
2018-08-17T07:34:18.993Z,16.95
2018-08-17T07:36:49.713Z,16.99
2018-08-17T07:39:20.393Z,17.07
2018-08-17T07:41:51.184Z,17.08
2018-08-17T07:44:21.974Z,17.09
2018-08-17T07:46:52.713Z,17.18
2018-08-17T07:49:23.468Z,17.21
2018-08-17T07:51:54.076Z,17.17
2018-08-17T07:54:24.964Z,17.26
2018-08-17T07:56:55.677Z,17.32
2018-08-17T07:59:26.897Z,17.40
2018-08-17T08:01:57.656Z,17.52
2018-08-17T08:04:28.500Z,17.53
2018-08-17T08:06:59.300Z,17.60
2018-08-17T08:09:30.053Z,17.68
2018-08-17T08:12:00.846Z,17.73
2018-08-17T08:14:31.559Z,17.80
2018-08-17T08:17:02.245Z,17.83
2018-08-17T08:19:32.988Z,17.88
2018-08-17T08:22:04.630Z,17.98
2018-08-17T08:24:39.508Z,18.05
2018-08-17T08:27:10.172Z,18.20
2018-08-17T08:29:40.851Z,18.40
2018-08-17T08:32:11.618Z,18.69
2018-08-17T08:34:42.510Z,19.04
2018-08-17T08:37:13.281Z,19.66
2018-08-17T08:39:43.952Z,20.30
2018-08-17T08:42:14.780Z,20.71
2018-08-17T08:44:45.488Z,20.91
2018-08-17T08:47:16.163Z,20.94
2018-08-17T08:49:46.875Z,20.91
2018-08-17T08:52:17.660Z,21.06
2018-08-17T08:54:48.583Z,21.17
2018-08-17T08:57:19.312Z,21.35
2018-08-17T08:59:49.943Z,21.44
2018-08-17T09:02:20.746Z,21.53
2018-08-17T09:04:51.487Z,21.57
2018-08-17T09:07:22.294Z,21.58
2018-08-17T09:09:52.969Z,21.64
2018-08-17T09:12:23.808Z,21.63
2018-08-17T09:14:54.479Z,21.59
2018-08-17T09:17:28.764Z,21.51
2018-08-17T09:19:59.441Z,21.39
2018-08-17T09:22:30.075Z,21.32
2018-08-17T09:25:00.781Z,21.40
2018-08-17T09:27:31.412Z,21.59
2018-08-17T09:30:02.293Z,21.74
2018-08-17T09:32:33.087Z,21.86
2018-08-17T09:35:03.909Z,21.91
2018-08-17T09:37:34.584Z,21.95
2018-08-17T09:40:06.090Z,21.94
2018-08-17T09:42:36.812Z,21.88
2018-08-17T09:45:10.064Z,21.86
2018-08-17T09:47:40.718Z,21.77
2018-08-17T09:50:13.499Z,21.76
2018-08-17T09:52:44.279Z,21.71
2018-08-17T09:55:14.983Z,21.65
2018-08-17T09:57:45.593Z,21.71
2018-08-17T10:00:16.358Z,21.80
2018-08-17T10:03:50.961Z,21.86
2018-08-17T10:06:26.848Z,21.94
2018-08-17T10:10:06.690Z,21.84
2018-08-17T10:12:37.350Z,21.85
2018-08-17T10:15:08.277Z,21.82
2018-08-17T10:17:39.000Z,21.80
2018-08-17T10:20:18.115Z,21.78
2018-08-17T10:22:48.774Z,21.81
2018-08-17T10:25:22.671Z,21.84
2018-08-17T10:27:54.649Z,21.81
2018-08-17T10:30:25.725Z,21.70
2018-08-17T10:32:59.288Z,21.59
2018-08-17T10:35:36.685Z,21.53
2018-08-17T10:38:08.246Z,21.48
2018-08-17T10:40:41.825Z,21.56
2018-08-17T10:43:12.576Z,21.60
2018-08-17T10:45:43.270Z,21.72
2018-08-17T10:48:14.043Z,21.82
2018-08-17T10:50:44.703Z,21.90
2018-08-17T10:53:15.353Z,22.10
2018-08-17T10:55:49.224Z,22.43
2018-08-17T10:58:19.926Z,22.72
2018-08-17T11:00:50.551Z,22.97
2018-08-17T11:03:21.201Z,23.20
2018-08-17T11:05:51.944Z,23.48
2018-08-17T11:08:22.614Z,23.63
2018-08-17T11:10:53.310Z,23.70
2018-08-17T11:13:24.007Z,23.84
2018-08-17T11:15:54.701Z,24.18
2018-08-17T11:18:25.393Z,24.36
2018-08-17T11:20:56.588Z,24.44
2018-08-17T11:23:27.332Z,24.35
2018-08-17T11:25:58.003Z,24.37
2018-08-17T11:28:28.625Z,24.37
2018-08-17T11:30:59.316Z,24.29
2018-08-17T11:33:30.458Z,24.07
2018-08-17T11:36:01.172Z,23.78
2018-08-17T11:38:31.817Z,23.40
2018-08-17T11:41:02.525Z,23.09
2018-08-17T11:43:33.168Z,22.80
2018-08-17T11:46:03.823Z,22.53
2018-08-17T11:48:35.463Z,22.26
2018-08-17T11:51:06.275Z,22.14
2018-08-17T11:53:37.068Z,22.16
2018-08-17T11:56:07.716Z,22.25
2018-08-17T11:58:38.398Z,22.41
2018-08-17T12:01:14.490Z,22.49
2018-08-17T12:03:45.147Z,22.45
2018-08-17T12:06:15.836Z,22.34
2018-08-17T12:08:46.508Z,22.12
2018-08-17T12:11:18.343Z,21.88
2018-08-17T12:13:49.012Z,21.59
2018-08-17T12:16:19.748Z,21.39
2018-08-17T12:18:50.450Z,21.29
2018-08-17T12:21:21.175Z,21.13
2018-08-17T12:23:51.859Z,21.00
2018-08-17T12:26:22.539Z,20.95
2018-08-17T12:28:53.168Z,20.91
2018-08-17T12:31:23.839Z,20.84
2018-08-17T12:33:54.688Z,20.75
2018-08-17T12:36:25.353Z,20.78
2018-08-17T12:38:55.982Z,20.83
2018-08-17T12:41:26.725Z,20.90
2018-08-17T12:43:57.312Z,21.09
2018-08-17T12:46:28.020Z,21.22
2018-08-17T12:48:58.748Z,21.48
2018-08-17T12:51:29.400Z,21.77
2018-08-17T12:54:00.087Z,22.23
2018-08-17T12:56:30.713Z,22.66
2018-08-17T12:59:01.357Z,23.04
2018-08-17T13:01:31.998Z,23.29
2018-08-17T13:04:02.624Z,23.44
2018-08-17T13:06:33.324Z,23.53
2018-08-17T13:09:04.761Z,23.70
2018-08-17T13:11:37.674Z,23.75
2018-08-17T13:14:12.038Z,23.83
2018-08-17T13:16:43.603Z,23.99
2018-08-17T13:19:14.336Z,24.19
2018-08-17T13:21:45.014Z,24.42
2018-08-17T13:24:15.737Z,24.54
2018-08-17T13:26:46.793Z,24.47
2018-08-17T13:29:17.511Z,24.42
2018-08-17T13:31:48.210Z,24.50
2018-08-17T13:34:18.877Z,24.59
2018-08-17T13:36:49.598Z,24.80
2018-08-17T13:39:20.262Z,25.14
2018-08-17T13:41:50.990Z,25.12
2018-08-17T13:44:21.681Z,24.99
2018-08-17T13:46:52.402Z,24.78
2018-08-17T13:49:23.011Z,24.99
2018-08-17T13:51:53.627Z,25.39
2018-08-17T13:54:24.358Z,25.91
2018-08-17T13:56:57.408Z,26.46
2018-08-17T13:59:28.051Z,26.54
2018-08-17T14:01:58.804Z,26.64
2018-08-17T14:04:29.467Z,26.53
2018-08-17T14:07:00.175Z,26.19
2018-08-17T14:09:30.789Z,25.96
2018-08-17T14:12:01.484Z,25.98
2018-08-17T14:14:32.121Z,25.95
2018-08-17T14:17:02.867Z,25.80
2018-08-17T14:19:33.549Z,25.98
2018-08-17T14:22:04.430Z,26.37
2018-08-17T14:24:35.146Z,26.65
2018-08-17T14:27:05.947Z,26.90
2018-08-17T14:29:36.572Z,27.08
2018-08-17T14:32:08.379Z,27.23
2018-08-17T14:34:39.015Z,27.04
2018-08-17T14:37:09.779Z,27.20
2018-08-17T14:39:40.518Z,27.39
2018-08-17T14:42:11.181Z,27.48
2018-08-17T14:44:41.847Z,27.63
2018-08-17T14:47:12.588Z,27.55
2018-08-17T14:49:43.218Z,27.57
2018-08-17T14:52:13.950Z,27.58
2018-08-17T14:54:44.624Z,27.69
2018-08-17T14:57:15.266Z,27.84
2018-08-17T14:59:45.936Z,27.89
2018-08-17T15:02:16.594Z,27.95
2018-08-17T15:04:47.422Z,28.01
2018-08-17T15:07:18.036Z,28.05
2018-08-17T15:09:48.723Z,28.14
2018-08-17T15:12:19.412Z,27.98
2018-08-17T15:14:50.109Z,27.99
2018-08-17T15:17:20.770Z,28.07
2018-08-17T15:19:51.491Z,28.22
2018-08-17T15:22:22.207Z,28.03
2018-08-17T15:24:52.943Z,27.98
2018-08-17T15:27:23.621Z,27.69
2018-08-17T15:29:54.302Z,27.62
2018-08-17T15:32:24.950Z,27.72
2018-08-17T15:34:55.788Z,27.94
2018-08-17T15:37:26.537Z,28.07
2018-08-17T15:39:57.204Z,28.25
2018-08-17T15:42:27.891Z,28.37
2018-08-17T15:44:59.421Z,28.31
2018-08-17T15:47:34.024Z,28.17
2018-08-17T15:50:17.300Z,28.11
2018-08-17T15:52:48.055Z,28.14
2018-08-17T15:55:18.903Z,28.10
2018-08-17T15:57:49.593Z,27.99
2018-08-17T16:00:20.858Z,27.87
2018-08-17T16:02:51.581Z,27.55
2018-08-17T16:05:22.462Z,27.49
2018-08-17T16:07:53.297Z,27.50
2018-08-17T16:10:24.107Z,27.57
2018-08-17T16:12:55.009Z,27.43
2018-08-17T16:15:25.733Z,27.25
2018-08-17T16:17:56.548Z,26.82
2018-08-17T16:20:27.237Z,26.51
2018-08-17T16:22:58.023Z,26.29
2018-08-17T16:25:28.676Z,26.12
2018-08-17T16:27:59.416Z,25.94
2018-08-17T16:30:30.169Z,25.93
2018-08-17T16:33:00.847Z,25.90
2018-08-17T16:35:31.598Z,25.93
2018-08-17T16:38:02.389Z,25.90
2018-08-17T16:40:39.235Z,25.67
2018-08-17T16:43:10.038Z,25.47
2018-08-17T16:45:40.732Z,25.32
2018-08-17T16:48:11.760Z,25.19
2018-08-17T16:50:42.518Z,24.92
2018-08-17T16:53:13.216Z,24.69
2018-08-17T16:55:44.005Z,24.65
2018-08-17T16:58:14.623Z,24.67
2018-08-17T17:00:45.319Z,24.67
2018-08-17T17:03:16.063Z,24.61
2018-08-17T17:05:46.754Z,24.59
2018-08-17T17:08:17.346Z,24.53
2018-08-17T17:10:48.023Z,24.45
2018-08-17T17:13:18.722Z,24.37
2018-08-17T17:15:49.422Z,24.33
2018-08-17T17:18:20.080Z,24.25
2018-08-17T17:20:50.831Z,24.12
2018-08-17T17:23:21.492Z,24.00
2018-08-17T17:25:52.230Z,23.94
2018-08-17T17:28:23.040Z,23.87
2018-08-17T17:30:54.308Z,23.84
2018-08-17T17:36:25.940Z,23.69
2018-08-17T17:39:04.075Z,23.70
2018-08-17T17:41:35.342Z,23.59
2018-08-17T17:44:06.151Z,23.49
2018-08-17T17:46:37.228Z,23.41
2018-08-17T17:49:07.982Z,23.33
2018-08-17T17:51:38.724Z,23.28
2018-08-17T17:54:09.607Z,23.23
2018-08-17T17:56:40.282Z,23.14
2018-08-17T17:59:14.906Z,23.08
2018-08-17T18:01:45.536Z,23.00
2018-08-17T18:04:16.243Z,22.92
2018-08-17T18:06:46.934Z,22.86
2018-08-17T18:09:17.638Z,22.83
2018-08-17T18:11:48.347Z,22.76
2018-08-17T18:14:19.205Z,22.64
2018-08-17T18:16:49.997Z,22.52
2018-08-17T18:19:20.709Z,22.43
2018-08-17T18:21:51.508Z,22.30
2018-08-17T18:24:22.149Z,22.17
2018-08-17T18:26:52.911Z,22.06
2018-08-17T18:29:23.568Z,21.95
2018-08-17T18:31:54.279Z,21.86
2018-08-17T18:34:25.079Z,21.76
2018-08-17T18:36:55.779Z,21.69
2018-08-17T18:39:26.523Z,21.56
2018-08-17T18:41:57.543Z,21.47
2018-08-17T18:44:28.246Z,21.34
2018-08-17T18:46:59.028Z,21.23
2018-08-17T18:49:29.832Z,21.08
2018-08-17T18:52:00.600Z,20.97
2018-08-17T18:54:31.315Z,20.83
2018-08-17T18:57:02.083Z,20.70
2018-08-17T18:59:32.859Z,20.58
2018-08-17T19:02:03.695Z,20.44
2018-08-17T19:04:34.456Z,20.34
2018-08-17T19:07:05.307Z,20.21
2018-08-17T19:09:35.965Z,20.14
2018-08-17T19:12:06.749Z,20.03
2018-08-17T19:14:44.292Z,20.00
2018-08-17T19:17:20.305Z,19.89
2018-08-17T19:19:51.939Z,19.81
2018-08-17T19:22:22.926Z,19.72
2018-08-17T19:24:54.054Z,19.67
2018-08-17T19:27:31.707Z,19.63
2018-08-17T19:30:03.204Z,19.54
2018-08-17T19:32:33.875Z,19.48
2018-08-17T19:35:04.695Z,19.38
2018-08-17T19:37:39.482Z,19.29
2018-08-17T19:40:10.852Z,19.21
2018-08-17T19:42:42.210Z,19.16
2018-08-17T19:45:12.993Z,19.12
2018-08-17T19:47:44.416Z,19.13
2018-08-17T19:50:15.948Z,19.12
2018-08-17T19:52:46.692Z,19.10
2018-08-17T19:55:17.645Z,19.09
2018-08-17T19:57:48.484Z,19.08
2018-08-17T20:00:19.680Z,19.10
2018-08-17T20:02:50.740Z,19.08
2018-08-17T20:05:21.562Z,19.06
2018-08-17T20:07:54.042Z,19.01
2018-08-17T20:10:24.786Z,18.98
2018-08-17T20:12:55.614Z,18.96
2018-08-17T20:15:27.170Z,18.95
2018-08-17T20:17:58.063Z,18.93
2018-08-17T20:20:28.840Z,18.92
2018-08-17T20:23:01.963Z,18.90
2018-08-17T20:25:32.752Z,18.86
2018-08-17T20:28:03.567Z,18.82
2018-08-17T20:30:34.331Z,18.80
2018-08-17T20:33:12.405Z,18.76
2018-08-17T20:35:43.164Z,18.69
2018-08-17T20:38:13.897Z,18.63
2018-08-17T20:40:44.629Z,18.57
2018-08-17T20:43:16.542Z,18.50
2018-08-17T20:45:47.397Z,18.43
2018-08-17T20:48:18.131Z,18.38
2018-08-17T20:50:49.723Z,18.35
2018-08-17T20:53:21.480Z,18.32
2018-08-17T20:55:52.315Z,18.33
2018-08-17T20:58:23.013Z,18.30
2018-08-17T21:00:53.844Z,18.26
2018-08-17T21:03:24.517Z,18.24
2018-08-17T21:05:55.284Z,18.24
2018-08-17T21:08:26.000Z,18.15
2018-08-17T21:10:56.763Z,18.06
2018-08-17T21:13:27.484Z,18.01
2018-08-17T21:15:58.270Z,17.97
2018-08-17T21:18:29.052Z,17.92
2018-08-17T21:20:59.904Z,17.87
2018-08-17T21:23:30.685Z,17.83
2018-08-17T21:26:01.463Z,17.78
2018-08-17T21:28:32.663Z,17.79
2018-08-17T21:31:03.443Z,17.83
2018-08-17T21:33:34.224Z,17.87
2018-08-17T21:36:04.912Z,17.83
2018-08-17T21:41:37.085Z,17.79
2018-08-17T21:44:10.925Z,17.80
2018-08-17T21:46:52.397Z,17.80
2018-08-17T21:49:26.269Z,17.79
2018-08-17T21:52:03.482Z,17.77
2018-08-17T21:54:34.981Z,17.70
2018-08-17T21:57:05.941Z,17.57
2018-08-17T21:59:41.706Z,17.58
2018-08-17T22:02:12.757Z,17.65
2018-08-17T22:04:43.495Z,17.67
2018-08-17T22:07:21.583Z,17.64
2018-08-17T22:09:53.285Z,17.61
2018-08-17T22:12:24.041Z,17.61
2018-08-17T22:14:55.307Z,17.65
2018-08-17T22:17:35.737Z,17.71
2018-08-17T22:20:09.261Z,17.77
2018-08-17T22:22:40.105Z,17.78
2018-08-17T22:25:16.230Z,17.79
2018-08-17T22:27:49.516Z,17.76
2018-08-17T22:30:23.734Z,17.71
2018-08-17T22:32:54.611Z,17.73
2018-08-17T22:35:25.467Z,17.80
2018-08-17T22:37:56.933Z,17.81
2018-08-17T22:40:28.310Z,17.80
2018-08-17T22:42:59.622Z,17.77
2018-08-17T22:45:30.415Z,17.73
2018-08-17T22:48:01.198Z,17.71
2018-08-17T22:50:31.961Z,17.68
2018-08-17T22:53:03.176Z,17.68
2018-08-17T22:55:33.929Z,17.68
2018-08-17T22:58:04.729Z,17.61
2018-08-17T23:00:35.461Z,17.54
2018-08-17T23:03:06.220Z,17.46
2018-08-17T23:05:37.340Z,17.39
2018-08-17T23:08:08.147Z,17.32
2018-08-17T23:10:38.896Z,17.27
2018-08-17T23:13:09.580Z,17.24
2018-08-17T23:15:40.320Z,17.18
2018-08-17T23:18:11.164Z,17.13
2018-08-17T23:20:41.902Z,17.12
2018-08-17T23:23:12.719Z,17.08
2018-08-17T23:25:43.465Z,17.02
2018-08-17T23:28:14.183Z,16.97
2018-08-17T23:30:45.012Z,16.90
2018-08-17T23:33:15.848Z,16.87
2018-08-17T23:35:46.585Z,16.80
2018-08-17T23:38:17.407Z,16.76
2018-08-17T23:40:48.220Z,16.73
2018-08-17T23:43:18.992Z,16.70
2018-08-17T23:45:49.650Z,16.68
2018-08-17T23:48:20.307Z,16.69
2018-08-17T23:50:51.053Z,16.65
2018-08-17T23:53:22.084Z,16.59
2018-08-17T23:55:52.858Z,16.52
2018-08-17T23:58:23.512Z,16.45
